Time;durP1;ratioP1;P1;durP2;ratioP2;P2;SDS_P1;SDS_P2;PMS_P1;PMS_P2;Temp;Humidity;BMP_temperature;BMP_pressure;BME280_temperature;BME280_humidity;BME280_pressure;Samples;Min_cycle;Max_cycle;Signal;HPM_P1;HPM_P2
2022/05/28 00:00:11;;;;;;;17.98;2.60;;;;;;;;;;5006290;28;20040;-69
2022/05/28 00:02:36;;;;;;;15.43;3.15;;;;;;;;;;5000509;28;20068;-69
2022/05/28 00:05:02;;;;;;;14.73;2.55;;;;;;;;;;5003959;28;20555;-69
2022/05/28 00:07:27;;;;;;;13.70;2.40;;;;;;;;;;4984352;28;20030;-69
2022/05/28 00:09:53;;;;;;;9.13;2.35;;;;;;;;;;4969101;28;20022;-69
2022/05/28 00:12:22;;;;;;;14.73;3.15;;;;;;;;;;4967418;28;20042;-69
2022/05/28 00:14:47;;;;;;;13.65;3.00;;;;;;;;;;4986784;28;20018;-70
2022/05/28 00:17:12;;;;;;;13.40;3.60;;;;;;;;;;4983796;28;20025;-69
2022/05/28 00:19:38;;;;;;;16.23;2.72;;;;;;;;;;4968350;28;20038;-69
2022/05/28 00:22:03;;;;;;;12.25;2.55;;;;;;;;;;4986385;28;20152;-70
2022/05/28 00:24:28;;;;;;;13.27;2.67;;;;;;;;;;5002256;28;20080;-69
2022/05/28 00:26:53;;;;;;;13.45;2.95;;;;;;;;;;4982232;28;20121;-69
2022/05/28 00:29:19;;;;;;;17.33;3.28;;;;;;;;;;5004919;28;20538;-69
2022/05/28 00:31:44;;;;;;;12.07;2.97;;;;;;;;;;4982185;28;20029;-70
2022/05/28 00:34:09;;;;;;;19.35;3.38;;;;;;;;;;4984846;28;20029;-68
2022/05/28 00:36:34;;;;;;;18.08;2.90;;;;;;;;;;4982388;28;20048;-68
2022/05/28 00:38:59;;;;;;;15.57;3.30;;;;;;;;;;4985860;28;20433;-69
2022/05/28 00:41:25;;;;;;;15.10;2.92;;;;;;;;;;4983735;28;20097;-70
2022/05/28 00:43:50;;;;;;;16.45;2.70;;;;;;;;;;4967640;28;20595;-68
2022/05/28 00:46:18;;;;;;;14.38;3.17;;;;;;;;;;4969086;28;20026;-69
2022/05/28 00:48:44;;;;;;;18.02;3.03;;;;;;;;;;4997067;28;20293;-69
2022/05/28 00:51:14;;;;;;;17.20;3.47;;;;;;;;;;4987319;28;20049;-68
2022/05/28 00:53:39;;;;;;;12.63;2.90;;;;;;;;;;5000287;28;20022;-69
2022/05/28 00:56:05;;;;;;;15.38;3.20;;;;;;;;;;5002021;28;20421;-68
2022/05/28 00:58:31;;;;;;;19.85;3.20;;;;;;;;;;5000182;28;20030;-69
2022/05/28 01:00:56;;;;;;;20.58;3.60;;;;;;;;;;5004071;28;20120;-69
2022/05/28 01:03:41;;;;;;;18.42;4.53;;;;;;;;;;4982708;28;20451;-68
2022/05/28 01:06:25;;;;;;;21.25;3.75;;;;;;;;;;5003410;28;20117;-69
2022/05/28 01:08:54;;;;;;;13.52;3.17;;;;;;;;;;4983399;28;20063;-69
2022/05/28 01:11:26;;;;;;;15.98;2.88;;;;;;;;;;4981784;28;20028;-70
2022/05/28 01:13:52;;;;;;;;;;;;;;;;;;4985547;28;20161;-68
2022/05/28 01:16:23;;;;;;;20.70;3.28;;;;;;;;;;4986209;28;20011;-69
2022/05/28 01:18:50;;;;;;;14.13;3.05;;;;;;;;;;4982885;28;20030;-69
2022/05/28 01:21:24;;;;;;;15.43;3.20;;;;;;;;;;5005935;28;20018;-68
2022/05/28 01:24:08;;;;;;;13.40;2.60;;;;;;;;;;4983698;28;20234;-68
2022/05/28 01:26:54;;;;;;;16.70;2.75;;;;;;;;;;4999629;28;20026;-69
2022/05/28 01:29:21;;;;;;;14.13;3.53;;;;;;;;;;5005173;28;20449;-69
2022/05/28 01:31:47;;;;;;;17.10;3.50;;;;;;;;;;4983682;28;20542;-69
2022/05/28 01:34:14;;;;;;;16.13;3.15;;;;;;;;;;4985869;28;20117;-68
2022/05/28 01:36:40;;;;;;;12.73;2.97;;;;;;;;;;5001433;28;20030;-68
2022/05/28 01:39:06;;;;;;;16.98;3.10;;;;;;;;;;5002035;28;20026;-69
2022/05/28 01:41:33;;;;;;;16.02;2.80;;;;;;;;;;4997174;28;20033;-68
2022/05/28 01:43:58;;;;;;;14.98;2.60;;;;;;;;;;5003465;28;20041;-69
2022/05/28 01:46:28;;;;;;;15.68;2.85;;;;;;;;;;5002507;28;20021;-69
2022/05/28 01:48:54;;;;;;;14.68;2.90;;;;;;;;;;4980141;28;20021;-71
2022/05/28 01:51:20;;;;;;;16.75;2.90;;;;;;;;;;4984667;28;20056;-69
2022/05/28 01:56:31;;;;;;;17.42;3.70;;;;;;;;;;4999087;28;20056;-69
2022/05/28 01:58:56;;;;;;;15.63;2.28;;;;;;;;;;4983838;28;20018;-69
2022/05/28 02:01:22;;;;;;;17.25;3.47;;;;;;;;;;5002500;28;20104;-70
2022/05/28 02:03:48;;;;;;;16.95;2.83;;;;;;;;;;4998039;28;20447;-69
2022/05/28 02:06:13;;;;;;;15.57;2.60;;;;;;;;;;5002692;28;20060;-69
2022/05/28 02:08:40;;;;;;;15.55;3.20;;;;;;;;;;5000528;28;20057;-69
2022/05/28 02:11:11;;;;;;;12.50;2.95;;;;;;;;;;5001768;28;20423;-69
2022/05/28 02:13:46;;;;;;;13.93;2.47;;;;;;;;;;5001819;28;20010;-68
2022/05/28 02:16:17;;;;;;;16.25;2.75;;;;;;;;;;4986762;28;20049;-68
2022/05/28 02:19:04;;;;;;;11.98;2.60;;;;;;;;;;4997463;28;20037;-69
2022/05/28 02:21:29;;;;;;;14.35;2.50;;;;;;;;;;5002166;28;20048;-67
2022/05/28 02:24:04;;;;;;;11.73;2.42;;;;;;;;;;5000159;28;20516;-69
2022/05/28 02:26:37;;;;;;;12.32;1.95;;;;;;;;;;4999337;28;20022;-69
2022/05/28 02:29:03;;;;;;;12.82;2.92;;;;;;;;;;4982427;28;20026;-68
2022/05/28 02:31:39;;;;;;;7.70;2.03;;;;;;;;;;5002405;28;20032;-69
2022/05/28 02:34:04;;;;;;;13.35;2.40;;;;;;;;;;4984961;28;20117;-69
2022/05/28 02:36:30;;;;;;;9.63;1.92;;;;;;;;;;5002475;28;20440;-69
2022/05/28 02:38:55;;;;;;;10.93;1.98;;;;;;;;;;4982967;28;20301;-69
2022/05/28 02:41:21;;;;;;;8.60;1.88;;;;;;;;;;5000352;28;20073;-68
2022/05/28 02:43:46;;;;;;;12.68;1.85;;;;;;;;;;4981734;28;20057;-69
2022/05/28 02:46:12;;;;;;;9.48;2.17;;;;;;;;;;5003547;28;20026;-70
2022/05/28 02:48:49;;;;;;;9.98;1.73;;;;;;;;;;4998121;28;20092;-69
2022/05/28 02:51:16;;;;;;;12.07;1.80;;;;;;;;;;4985373;28;20018;-69
2022/05/28 02:53:41;;;;;;;13.15;2.05;;;;;;;;;;4981974;28;20048;-69
2022/05/28 02:56:07;;;;;;;8.93;1.60;;;;;;;;;;4983428;28;20049;-69
2022/05/28 02:58:33;;;;;;;11.68;1.60;;;;;;;;;;5001939;28;20247;-68
2022/05/28 03:01:00;;;;;;;9.30;1.92;;;;;;;;;;4999281;28;20029;-69
2022/05/28 03:03:25;;;;;;;8.93;1.90;;;;;;;;;;5000128;28;20093;-68
2022/05/28 03:05:51;;;;;;;9.02;1.40;;;;;;;;;;4963911;28;20557;-68
2022/05/28 03:08:16;;;;;;;9.77;1.67;;;;;;;;;;4984968;28;20022;-68
2022/05/28 03:10:41;;;;;;;7.80;1.60;;;;;;;;;;4980354;28;20018;-68
2022/05/28 03:13:07;;;;;;;3.88;1.40;;;;;;;;;;4986136;28;20467;-67
2022/05/28 03:15:32;;;;;;;8.65;1.50;;;;;;;;;;4985085;28;20476;-69
2022/05/28 03:17:59;;;;;;;7.80;1.83;;;;;;;;;;4982627;28;20553;-69
2022/05/28 03:20:26;;;;;;;12.05;2.33;;;;;;;;;;4988221;28;20026;-67
2022/05/28 03:22:51;;;;;;;7.85;1.83;;;;;;;;;;5004650;28;20075;-68
2022/05/28 03:25:16;;;;;;;7.72;1.40;;;;;;;;;;5001818;28;20193;-69
2022/05/28 03:27:41;;;;;;;8.35;1.52;;;;;;;;;;5003397;28;20025;-69
2022/05/28 03:30:07;;;;;;;12.38;1.85;;;;;;;;;;5005374;28;20345;-68
2022/05/28 03:32:32;;;;;;;3.60;1.38;;;;;;;;;;4971272;28;20387;-67
2022/05/28 03:34:58;;;;;;;7.10;1.35;;;;;;;;;;4984871;28;20334;-70
2022/05/28 03:37:23;;;;;;;6.32;1.17;;;;;;;;;;4987567;28;20461;-70
2022/05/28 03:39:58;;;;;;;10.00;1.40;;;;;;;;;;5002704;28;20029;-68
2022/05/28 03:42:23;;;;;;;9.50;1.50;;;;;;;;;;4987355;28;20025;-67
2022/05/28 03:44:51;;;;;;;8.15;1.40;;;;;;;;;;4986393;28;20136;-68
2022/05/28 03:47:16;;;;;;;7.47;1.75;;;;;;;;;;4969513;28;20053;-67
2022/05/28 03:49:42;;;;;;;7.25;1.58;;;;;;;;;;5003096;28;20025;-69
2022/05/28 03:52:08;;;;;;;8.45;1.38;;;;;;;;;;4986963;28;20109;-69
2022/05/28 03:54:34;;;;;;;7.30;1.38;;;;;;;;;;5005233;28;20496;-68
2022/05/28 03:57:02;;;;;;;7.38;1.35;;;;;;;;;;4999490;28;20834;-68
2022/05/28 03:59:27;;;;;;;7.45;1.40;;;;;;;;;;5004162;28;20025;-68
2022/05/28 04:01:53;;;;;;;6.05;1.75;;;;;;;;;;4980638;28;20291;-69
2022/05/28 04:04:19;;;;;;;5.90;1.30;;;;;;;;;;4970026;28;20029;-69
2022/05/28 04:06:44;;;;;;;8.50;1.45;;;;;;;;;;5002462;28;20026;-67
2022/05/28 04:09:09;;;;;;;5.68;1.30;;;;;;;;;;5005340;28;20033;-68
2022/05/28 04:11:35;;;;;;;7.53;1.38;;;;;;;;;;4985203;28;20022;-68
2022/05/28 04:14:01;;;;;;;7.43;1.33;;;;;;;;;;5002177;28;20410;-69
2022/05/28 04:16:27;;;;;;;4.40;1.17;;;;;;;;;;5005502;28;20767;-69
2022/05/28 04:18:52;;;;;;;10.90;1.65;;;;;;;;;;4984689;28;20087;-69
2022/05/28 04:21:18;;;;;;;5.78;1.25;;;;;;;;;;4985464;28;20442;-68
2022/05/28 04:23:43;;;;;;;8.73;1.60;;;;;;;;;;4985568;28;20053;-68
2022/05/28 04:26:09;;;;;;;5.65;1.40;;;;;;;;;;4983326;28;20037;-68
2022/05/28 04:28:34;;;;;;;8.90;1.60;;;;;;;;;;5005409;28;20026;-68
2022/05/28 04:30:59;;;;;;;8.30;1.73;;;;;;;;;;5001699;28;20029;-68
2022/05/28 04:33:24;;;;;;;6.68;1.63;;;;;;;;;;5003319;28;20535;-67
2022/05/28 04:35:50;;;;;;;9.57;1.83;;;;;;;;;;4981039;28;20540;-68
2022/05/28 04:38:15;;;;;;;8.90;1.50;;;;;;;;;;4987237;28;20520;-69
2022/05/28 04:40:40;;;;;;;6.78;1.30;;;;;;;;;;4982883;28;20476;-67
2022/05/28 04:43:05;;;;;;;10.25;2.20;;;;;;;;;;4969008;28;20050;-69
2022/05/28 04:45:31;;;;;;;5.43;1.42;;;;;;;;;;5005902;28;20562;-69
2022/05/28 04:47:56;;;;;;;7.88;2.03;;;;;;;;;;4982363;28;20033;-69
2022/05/28 04:50:21;;;;;;;9.27;1.50;;;;;;;;;;4999989;28;20025;-69
2022/05/28 04:52:47;;;;;;;8.73;1.40;;;;;;;;;;4968162;28;20630;-69
2022/05/28 04:55:12;;;;;;;12.30;1.85;;;;;;;;;;4965605;28;20212;-68
2022/05/28 04:57:38;;;;;;;9.70;1.92;;;;;;;;;;5005461;28;20049;-67
2022/05/28 05:00:06;;;;;;;7.03;1.70;;;;;;;;;;5000086;28;20025;-69
2022/05/28 05:02:31;;;;;;;11.77;1.75;;;;;;;;;;5000940;28;20069;-69
2022/05/28 05:04:57;;;;;;;8.63;1.60;;;;;;;;;;4998154;28;20320;-69
2022/05/28 05:07:22;;;;;;;5.45;1.48;;;;;;;;;;4984576;28;20037;-68
2022/05/28 05:09:57;;;;;;;6.60;1.40;;;;;;;;;;5000249;28;20017;-69
2022/05/28 05:12:23;;;;;;;7.10;1.80;;;;;;;;;;5004487;28;20014;-69
2022/05/28 05:14:49;;;;;;;8.95;2.05;;;;;;;;;;5001512;28;20420;-68
2022/05/28 05:17:14;;;;;;;7.38;2.92;;;;;;;;;;4981910;28;20025;-68
2022/05/28 05:19:39;;;;;;;16.52;2.58;;;;;;;;;;4999657;28;20453;-70
2022/05/28 05:22:04;;;;;;;12.70;1.80;;;;;;;;;;4983815;28;20555;-69
2022/05/28 05:24:31;;;;;;;9.95;2.00;;;;;;;;;;4985362;28;20030;-68
2022/05/28 05:26:56;;;;;;;11.73;1.85;;;;;;;;;;4980557;28;20447;-69
2022/05/28 05:29:21;;;;;;;7.72;2.28;;;;;;;;;;5003291;28;20092;-69
2022/05/28 05:31:47;;;;;;;9.10;2.15;;;;;;;;;;4998933;28;20041;-68
2022/05/28 05:34:12;;;;;;;5.45;1.38;;;;;;;;;;4985548;28;20606;-67
2022/05/28 05:36:38;;;;;;;6.97;1.40;;;;;;;;;;5001865;28;20364;-68
2022/05/28 05:39:03;;;;;;;7.68;1.60;;;;;;;;;;5003716;28;20369;-68
2022/05/28 05:41:28;;;;;;;8.80;1.45;;;;;;;;;;4982441;28;20518;-68
2022/05/28 05:43:53;;;;;;;8.38;1.67;;;;;;;;;;4984826;28;20401;-68
2022/05/28 05:46:19;;;;;;;11.13;1.80;;;;;;;;;;4983263;28;20030;-68
2022/05/28 05:48:44;;;;;;;10.10;2.28;;;;;;;;;;4999948;28;20034;-67
2022/05/28 05:51:11;;;;;;;10.05;1.90;;;;;;;;;;5000858;28;20504;-69
2022/05/28 05:53:37;;;;;;;5.63;1.80;;;;;;;;;;5004520;28;20060;-68
2022/05/28 05:56:03;;;;;;;7.30;1.45;;;;;;;;;;4967569;28;20022;-68
2022/05/28 05:58:28;;;;;;;10.93;2.22;;;;;;;;;;5003255;28;20528;-68
2022/05/28 06:00:53;;;;;;;10.13;1.50;;;;;;;;;;4983789;28;20041;-69
2022/05/28 06:03:19;;;;;;;5.65;1.63;;;;;;;;;;5000948;28;20386;-68
2022/05/28 06:05:44;;;;;;;9.27;1.83;;;;;;;;;;5001243;28;20022;-68
2022/05/28 06:08:10;;;;;;;9.32;2.08;;;;;;;;;;4985399;28;20030;-68
2022/05/28 06:10:35;;;;;;;7.68;2.10;;;;;;;;;;4999835;28;20421;-69
2022/05/28 06:13:01;;;;;;;7.13;1.67;;;;;;;;;;4967203;28;20032;-69
2022/05/28 06:15:26;;;;;;;8.85;2.20;;;;;;;;;;5002152;28;20030;-68
2022/05/28 06:17:52;;;;;;;12.55;2.10;;;;;;;;;;4981989;28;20080;-67
2022/05/28 06:20:17;;;;;;;9.43;1.83;;;;;;;;;;4966442;28;20076;-69
2022/05/28 06:22:43;;;;;;;8.88;1.50;;;;;;;;;;5003537;28;20030;-67
2022/05/28 06:25:08;;;;;;;5.07;1.50;;;;;;;;;;4999973;28;20284;-68
2022/05/28 06:27:34;;;;;;;8.55;1.90;;;;;;;;;;4985134;28;20395;-69
2022/05/28 06:29:59;;;;;;;6.65;1.88;;;;;;;;;;4997930;28;20595;-67
2022/05/28 06:32:24;;;;;;;10.85;1.95;;;;;;;;;;5000176;28;20018;-68
2022/05/28 06:34:51;;;;;;;7.82;1.70;;;;;;;;;;4985167;28;20030;-69
2022/05/28 06:37:16;;;;;;;11.85;2.00;;;;;;;;;;4965775;28;20025;-68
2022/05/28 06:39:42;;;;;;;7.88;2.08;;;;;;;;;;5002497;28;20263;-68
2022/05/28 06:42:07;;;;;;;11.30;2.17;;;;;;;;;;4998319;28;20022;-69
2022/05/28 06:44:33;;;;;;;6.50;1.90;;;;;;;;;;5004987;28;20347;-69
2022/05/28 06:46:58;;;;;;;7.47;2.00;;;;;;;;;;4995652;28;20428;-69
2022/05/28 06:49:23;;;;;;;12.57;2.65;;;;;;;;;;5000038;28;20030;-69
2022/05/28 06:51:50;;;;;;;11.30;2.03;;;;;;;;;;4966512;28;20500;-68
2022/05/28 06:54:16;;;;;;;10.15;1.85;;;;;;;;;;5002910;28;20376;-67
2022/05/28 06:56:41;;;;;;;8.32;1.80;;;;;;;;;;5003929;28;20135;-69
2022/05/28 06:59:06;;;;;;;9.80;2.85;;;;;;;;;;5004848;28;20037;-68
2022/05/28 07:01:32;;;;;;;9.68;2.03;;;;;;;;;;5003035;28;20163;-68
2022/05/28 07:03:58;;;;;;;12.23;2.72;;;;;;;;;;4987024;28;20029;-68
2022/05/28 07:06:24;;;;;;;8.82;1.92;;;;;;;;;;4969458;28;20026;-68
2022/05/28 07:08:49;;;;;;;10.02;2.20;;;;;;;;;;4972876;28;20648;-69
2022/05/28 07:11:15;;;;;;;8.45;1.77;;;;;;;;;;4966832;28;20601;-68
2022/05/28 07:13:41;;;;;;;13.50;2.03;;;;;;;;;;5003299;28;20026;-69
2022/05/28 07:16:07;;;;;;;10.07;2.00;;;;;;;;;;4983373;28;20546;-70
2022/05/28 07:18:33;;;;;;;11.43;1.80;;;;;;;;;;4985426;28;20349;-67
2022/05/28 07:20:59;;;;;;;8.27;2.00;;;;;;;;;;4982874;28;20112;-68
2022/05/28 07:23:26;;;;;;;7.32;2.20;;;;;;;;;;4970622;28;20113;-68
2022/05/28 07:26:01;;;;;;;10.88;2.17;;;;;;;;;;4985116;28;20030;-68
2022/05/28 07:28:28;;;;;;;8.45;1.98;;;;;;;;;;4984276;28;20483;-69
2022/05/28 07:30:53;;;;;;;8.82;1.60;;;;;;;;;;5002696;28;20014;-68
2022/05/28 07:33:18;;;;;;;9.25;1.80;;;;;;;;;;5001684;28;20427;-69
2022/05/28 07:35:44;;;;;;;11.13;2.40;;;;;;;;;;4984097;28;20666;-69
2022/05/28 07:38:09;;;;;;;10.85;1.90;;;;;;;;;;4984265;28;20087;-68
2022/05/28 07:40:34;;;;;;;7.25;1.95;;;;;;;;;;5003160;28;20045;-69
2022/05/28 07:43:00;;;;;;;9.68;2.03;;;;;;;;;;5003005;28;20054;-68
2022/05/28 07:45:26;;;;;;;9.63;2.00;;;;;;;;;;4967581;28;20042;-68
2022/05/28 07:47:51;;;;;;;9.02;1.88;;;;;;;;;;5003405;28;20064;-68
2022/05/28 07:50:16;;;;;;;8.93;1.95;;;;;;;;;;4984842;28;20022;-69
2022/05/28 07:52:42;;;;;;;6.18;1.48;;;;;;;;;;5003418;28;20420;-68
2022/05/28 07:55:10;;;;;;;10.50;1.90;;;;;;;;;;5002307;28;20022;-68
2022/05/28 07:57:35;;;;;;;10.77;1.92;;;;;;;;;;4986632;28;20036;-70
2022/05/28 08:00:01;;;;;;;7.93;2.17;;;;;;;;;;4987484;28;20022;-68
2022/05/28 08:02:26;;;;;;;8.57;2.17;;;;;;;;;;4968422;28;20065;-70
2022/05/28 08:04:51;;;;;;;9.43;1.80;;;;;;;;;;4971227;28;20049;-69
2022/05/28 08:07:17;;;;;;;10.32;1.90;;;;;;;;;;4983210;28;20427;-68
2022/05/28 08:09:42;;;;;;;10.23;2.67;;;;;;;;;;5004069;28;20342;-69
2022/05/28 08:12:07;;;;;;;11.35;1.95;;;;;;;;;;4981828;28;20080;-68
2022/05/28 08:14:33;;;;;;;10.68;2.85;;;;;;;;;;4986601;28;20437;-69
2022/05/28 08:17:00;;;;;;;9.40;1.65;;;;;;;;;;4998987;28;20447;-69
2022/05/28 08:19:25;;;;;;;9.35;2.13;;;;;;;;;;4984033;28;20108;-69
2022/05/28 08:24:34;;;;;;;12.68;2.63;;;;;;;;;;4990895;28;20045;-68
2022/05/28 08:27:00;;;;;;;14.25;2.22;;;;;;;;;;4999422;28;20424;-68
2022/05/28 08:29:25;;;;;;;10.45;2.15;;;;;;;;;;4965497;28;20071;-68
2022/05/28 08:31:51;;;;;;;9.65;1.98;;;;;;;;;;4979985;28;20351;-69
2022/05/28 08:34:16;;;;;;;12.35;2.70;;;;;;;;;;4967783;28;20049;-68
2022/05/28 08:36:41;;;;;;;9.27;2.00;;;;;;;;;;4998462;28;20033;-69
2022/05/28 08:39:09;;;;;;;11.23;2.08;;;;;;;;;;4985634;28;20026;-69
2022/05/28 08:41:41;;;;;;;11.10;2.33;;;;;;;;;;5001706;28;20472;-68
2022/05/28 08:44:18;;;;;;;8.60;1.90;;;;;;;;;;5003265;28;20133;-68
2022/05/28 08:46:44;;;;;;;12.45;2.10;;;;;;;;;;4998412;28;20022;-69
2022/05/28 08:49:12;;;;;;;15.23;2.20;;;;;;;;;;4985822;28;20112;-68
2022/05/28 08:51:40;;;;;;;7.10;2.05;;;;;;;;;;4982008;28;20024;-67
2022/05/28 08:54:11;;;;;;;9.40;2.08;;;;;;;;;;4987282;28;20025;-68
2022/05/28 08:56:37;;;;;;;11.27;2.97;;;;;;;;;;4999176;28;20018;-69
2022/05/28 08:59:13;;;;;;;8.25;1.98;;;;;;;;;;5005550;28;20095;-68
2022/05/28 09:01:40;;;;;;;8.63;1.60;;;;;;;;;;4999717;28;20479;-68
2022/05/28 09:04:10;;;;;;;7.22;2.00;;;;;;;;;;4986123;28;20033;-68
2022/05/28 09:06:36;;;;;;;7.97;1.60;;;;;;;;;;4996919;28;20029;-69
2022/05/28 09:09:01;;;;;;;9.48;2.70;;;;;;;;;;5003389;28;20021;-68
2022/05/28 09:11:33;;;;;;;9.70;1.38;;;;;;;;;;4979472;28;20816;-69
2022/05/28 09:14:01;;;;;;;6.28;1.80;;;;;;;;;;5003515;28;20076;-69
2022/05/28 09:16:31;;;;;;;12.05;2.10;;;;;;;;;;4981551;28;20030;-68
2022/05/28 09:19:01;;;;;;;6.32;1.60;;;;;;;;;;4983666;28;20057;-69
2022/05/28 09:21:27;;;;;;;8.55;1.77;;;;;;;;;;4997758;28;20033;-68
2022/05/28 09:23:55;;;;;;;12.50;2.70;;;;;;;;;;5003191;28;20018;-69
2022/05/28 09:26:44;;;;;;;10.05;2.28;;;;;;;;;;4976566;28;20213;-69
2022/05/28 09:29:21;;;;;;;9.23;1.92;;;;;;;;;;4999988;28;20022;-71
2022/05/28 09:32:03;;;;;;;7.40;2.13;;;;;;;;;;4995322;28;20026;-67
2022/05/28 09:34:28;;;;;;;7.87;1.83;;;;;;;;;;4999441;28;20033;-69
2022/05/28 09:36:57;;;;;;;11.45;2.95;;;;;;;;;;4981382;28;20392;-69
2022/05/28 09:39:37;;;;;;;11.25;2.30;;;;;;;;;;5000711;28;20021;-68
2022/05/28 09:42:03;;;;;;;10.60;2.70;;;;;;;;;;4983270;28;20033;-69
2022/05/28 09:44:43;;;;;;;4.63;1.67;;;;;;;;;;5000426;28;20822;-69
2022/05/28 09:47:12;;;;;;;9.60;1.60;;;;;;;;;;4999098;28;20028;-69
2022/05/28 09:49:48;;;;;;;9.50;1.85;;;;;;;;;;4999644;28;20026;-68
2022/05/28 09:52:20;;;;;;;9.32;2.17;;;;;;;;;;4979992;28;20116;-67
2022/05/28 09:54:45;;;;;;;11.27;2.15;;;;;;;;;;5001843;28;20018;-69
2022/05/28 09:57:20;;;;;;;8.30;1.98;;;;;;;;;;4980425;28;20476;-70
2022/05/28 09:59:52;;;;;;;9.63;2.00;;;;;;;;;;5002453;28;20014;-69
2022/05/28 10:02:17;;;;;;;10.05;2.10;;;;;;;;;;4999343;28;20022;-68
2022/05/28 10:04:51;;;;;;;10.75;2.25;;;;;;;;;;5002465;28;20041;-67
2022/05/28 10:07:27;;;;;;;8.15;1.88;;;;;;;;;;4980478;28;20029;-68
2022/05/28 10:09:53;;;;;;;8.05;2.03;;;;;;;;;;5002252;28;20029;-68
2022/05/28 10:12:23;;;;;;;12.95;2.35;;;;;;;;;;4962731;28;20040;-69
2022/05/28 10:14:59;;;;;;;9.77;2.40;;;;;;;;;;4984355;28;20212;-70
2022/05/28 10:17:27;;;;;;;9.63;2.10;;;;;;;;;;4978868;28;20058;-68
2022/05/28 10:19:54;;;;;;;8.18;1.77;;;;;;;;;;4984712;28;20029;-68
2022/05/28 10:22:20;;;;;;;7.30;2.00;;;;;;;;;;4999138;28;20044;-68
2022/05/28 10:24:54;;;;;;;10.63;1.83;;;;;;;;;;4982410;28;20041;-69
2022/05/28 10:27:23;;;;;;;10.75;1.73;;;;;;;;;;4983654;28;20049;-67
2022/05/28 10:29:51;;;;;;;12.02;2.85;;;;;;;;;;5002869;28;20452;-70
2022/05/28 10:32:26;;;;;;;7.35;1.77;;;;;;;;;;4984416;28;20022;-68
2022/05/28 10:34:58;;;;;;;8.27;1.40;;;;;;;;;;4986912;28;20026;-68
2022/05/28 10:37:23;;;;;;;9.30;1.77;;;;;;;;;;5001321;28;20420;-69
2022/05/28 10:39:48;;;;;;;7.22;1.98;;;;;;;;;;5004898;28;20041;-67
2022/05/28 10:42:15;;;;;;;13.02;2.20;;;;;;;;;;5000754;28;20026;-68
2022/05/28 10:44:41;;;;;;;13.25;2.20;;;;;;;;;;4970049;28;20088;-70
2022/05/28 10:47:24;;;;;;;10.43;2.28;;;;;;;;;;5002471;28;20037;-70
2022/05/28 10:50:16;;;;;;;8.15;1.92;;;;;;;;;;4984686;28;20022;-70
2022/05/28 10:52:44;;;;;;;11.02;1.90;;;;;;;;;;4979953;28;20263;-69
2022/05/28 10:55:12;;;;;;;10.45;2.00;;;;;;;;;;5002349;28;20029;-72
2022/05/28 10:57:40;;;;;;;8.75;1.65;;;;;;;;;;4982488;28;20447;-70
2022/05/28 11:00:05;;;;;;;9.70;2.20;;;;;;;;;;4986954;28;20032;-68
2022/05/28 11:02:41;;;;;;;11.80;2.20;;;;;;;;;;4981651;28;20026;-69
2022/05/28 11:05:25;;;;;;;8.65;1.67;;;;;;;;;;5001571;28;21111;-70
2022/05/28 11:08:02;;;;;;;12.18;2.35;;;;;;;;;;5001546;28;20474;-69
2022/05/28 11:10:32;;;;;;;11.63;1.90;;;;;;;;;;4979095;28;20033;-70
2022/05/28 11:13:16;;;;;;;8.20;2.15;;;;;;;;;;4984047;28;20269;-69
2022/05/28 11:16:04;;;;;;;9.70;2.05;;;;;;;;;;4984215;28;20121;-68
2022/05/28 11:18:40;;;;;;;10.20;2.10;;;;;;;;;;4999721;28;20018;-68
2022/05/28 11:21:31;;;;;;;10.13;2.00;;;;;;;;;;5003212;28;20013;-69
2022/05/28 11:24:02;;;;;;;13.73;3.00;;;;;;;;;;5003922;28;20068;-70
2022/05/28 11:26:37;;;;;;;10.30;2.10;;;;;;;;;;4980686;28;20069;-68
2022/05/28 11:29:15;;;;;;;7.47;2.00;;;;;;;;;;5004863;28;20029;-67
2022/05/28 11:31:52;;;;;;;9.27;2.10;;;;;;;;;;4981972;28;20559;-68
2022/05/28 11:34:23;;;;;;;15.00;2.60;;;;;;;;;;4984689;28;20321;-68
2022/05/28 11:36:57;;;;;;;9.73;2.03;;;;;;;;;;5001301;28;20663;-68
2022/05/28 11:39:29;;;;;;;10.10;2.00;;;;;;;;;;4985556;28;20022;-68
2022/05/28 11:41:59;;;;;;;7.15;2.38;;;;;;;;;;5002601;28;20022;-69
2022/05/28 11:44:24;;;;;;;9.85;2.35;;;;;;;;;;5003731;28;20038;-69
2022/05/28 11:46:56;;;;;;;8.93;1.77;;;;;;;;;;5001260;28;20632;-69
2022/05/28 11:52:26;;;;;;;9.15;2.05;;;;;;;;;;4999997;28;20553;-68
2022/05/28 11:55:12;;;;;;;15.38;2.22;;;;;;;;;;4987501;28;20018;-68
2022/05/28 11:57:41;;;;;;;10.00;1.90;;;;;;;;;;4998046;28;20032;-67
2022/05/28 12:00:07;;;;;;;8.70;2.25;;;;;;;;;;5004559;28;20061;-70
2022/05/28 12:02:41;;;;;;;8.95;1.95;;;;;;;;;;5001470;28;20026;-69
2022/05/28 12:05:17;;;;;;;9.98;2.17;;;;;;;;;;4985180;28;20022;-68
2022/05/28 12:07:44;;;;;;;11.35;2.20;;;;;;;;;;5000920;28;20284;-67
2022/05/28 12:10:15;;;;;;;8.55;2.17;;;;;;;;;;5001922;28;20333;-69
2022/05/28 12:13:00;;;;;;;7.72;1.98;;;;;;;;;;5002202;28;20088;-70
2022/05/28 12:15:30;;;;;;;7.78;1.60;;;;;;;;;;4984570;28;20076;-69
2022/05/28 12:17:59;;;;;;;8.35;1.88;;;;;;;;;;4985033;28;20025;-68
2022/05/28 12:20:32;;;;;;;7.43;1.90;;;;;;;;;;4986379;28;20455;-68
2022/05/28 12:23:00;;;;;;;9.95;1.88;;;;;;;;;;4984326;28;20417;-68
2022/05/28 12:25:28;;;;;;;8.43;1.90;;;;;;;;;;4983780;28;20451;-68
2022/05/28 12:27:53;;;;;;;10.13;2.20;;;;;;;;;;5005030;28;20030;-68
2022/05/28 12:30:39;;;;;;;5.82;2.08;;;;;;;;;;5004364;28;20096;-68
2022/05/28 12:33:05;;;;;;;9.35;2.05;;;;;;;;;;5003202;28;20010;-70
2022/05/28 12:35:30;;;;;;;11.65;2.40;;;;;;;;;;5000672;28;20060;-68
2022/05/28 12:38:02;;;;;;;10.33;4.03;;;;;;;;;;5003533;28;20024;-69
2022/05/28 12:40:27;;;;;;;11.45;3.22;;;;;;;;;;4982669;28;20649;-68
2022/05/28 12:42:53;;;;;;;11.13;4.90;;;;;;;;;;4984362;28;20049;-69
2022/05/28 12:45:25;;;;;;;8.60;3.20;;;;;;;;;;5002025;28;20021;-68
2022/05/28 12:47:51;;;;;;;8.57;2.60;;;;;;;;;;4983391;28;20053;-71
2022/05/28 12:50:37;;;;;;;13.10;4.25;;;;;;;;;;4982639;28;20057;-68
2022/05/28 12:53:13;;;;;;;6.53;1.92;;;;;;;;;;4970988;28;20049;-69
2022/05/28 12:55:39;;;;;;;6.20;2.17;;;;;;;;;;4982822;28;20033;-69
2022/05/28 12:58:05;;;;;;;7.85;2.38;;;;;;;;;;5005566;28;20041;-70
2022/05/28 13:00:51;;;;;;;9.65;2.00;;;;;;;;;;5001000;28;20392;-68
2022/05/28 13:03:17;;;;;;;8.38;1.92;;;;;;;;;;4987627;28;20045;-70
2022/05/28 13:05:48;;;;;;;10.13;2.25;;;;;;;;;;5001207;28;20480;-68
2022/05/28 13:08:28;;;;;;;7.00;1.63;;;;;;;;;;4985206;28;20049;-69
2022/05/28 13:10:55;;;;;;;6.07;1.88;;;;;;;;;;4984379;28;20479;-69
2022/05/28 13:13:40;;;;;;;7.13;2.00;;;;;;;;;;4985310;28;20026;-68
2022/05/28 13:16:25;;;;;;;6.63;1.58;;;;;;;;;;5001327;28;20113;-69
2022/05/28 13:18:50;;;;;;;7.30;2.05;;;;;;;;;;4983259;28;20360;-68
2022/05/28 13:21:34;;;;;;;7.35;2.03;;;;;;;;;;4985066;28;20071;-71
2022/05/28 13:23:59;;;;;;;8.85;1.73;;;;;;;;;;4982387;28;20025;-68
2022/05/28 13:26:34;;;;;;;8.47;1.63;;;;;;;;;;5000495;28;20433;-70
2022/05/28 13:29:09;;;;;;;6.40;1.80;;;;;;;;;;4999849;28;20290;-70
2022/05/28 13:31:37;;;;;;;11.35;2.13;;;;;;;;;;4998602;28;20022;-69
2022/05/28 13:34:04;;;;;;;10.05;2.28;;;;;;;;;;4984293;28;20365;-70
2022/05/28 13:36:31;;;;;;;9.50;2.55;;;;;;;;;;5001047;28;20014;-69
2022/05/28 13:38:56;;;;;;;13.15;2.58;;;;;;;;;;4981425;28;20506;-69
2022/05/28 13:41:24;;;;;;;11.00;2.72;;;;;;;;;;4984422;28;20034;-70
2022/05/28 13:43:52;;;;;;;11.35;2.05;;;;;;;;;;4984796;28;20531;-70
2022/05/28 13:46:18;;;;;;;9.52;2.17;;;;;;;;;;4984983;28;20036;-69
2022/05/28 13:48:45;;;;;;;9.25;1.60;;;;;;;;;;4999064;28;20026;-69
2022/05/28 13:51:11;;;;;;;9.25;3.95;;;;;;;;;;5000765;28;20044;-70
2022/05/28 13:53:38;;;;;;;11.05;3.17;;;;;;;;;;4998973;28;20414;-70
2022/05/28 13:56:04;;;;;;;8.43;2.08;;;;;;;;;;4999304;28;20400;-69
2022/05/28 13:58:32;;;;;;;6.35;2.00;;;;;;;;;;5000793;28;20113;-68
2022/05/28 14:00:59;;;;;;;8.10;2.20;;;;;;;;;;4983613;28;20030;-69
2022/05/28 14:03:32;;;;;;;9.65;3.30;;;;;;;;;;4985179;28;20072;-69
2022/05/28 14:05:59;;;;;;;8.77;2.38;;;;;;;;;;4984727;28;20072;-69
2022/05/28 14:08:36;;;;;;;6.88;1.88;;;;;;;;;;4980847;28;20029;-68
2022/05/28 14:11:18;;;;;;;9.07;2.33;;;;;;;;;;4979903;28;20025;-70
2022/05/28 14:13:45;;;;;;;10.18;2.42;;;;;;;;;;4982250;28;20053;-69
2022/05/28 14:16:20;;;;;;;8.75;2.88;;;;;;;;;;4983720;28;20336;-68
2022/05/28 14:18:45;;;;;;;11.48;2.28;;;;;;;;;;4997759;28;20299;-69
2022/05/28 14:21:11;;;;;;;10.63;2.15;;;;;;;;;;4983319;28;20036;-68
2022/05/28 14:23:44;;;;;;;14.85;2.30;;;;;;;;;;4997882;28;20476;-69
2022/05/28 14:26:13;;;;;;;10.82;2.28;;;;;;;;;;5000379;28;20045;-70
2022/05/28 14:28:39;;;;;;;10.65;2.38;;;;;;;;;;4980582;28;20457;-68
2022/05/28 14:31:05;;;;;;;11.05;1.88;;;;;;;;;;4998644;28;20495;-70
2022/05/28 14:33:32;;;;;;;10.77;2.00;;;;;;;;;;4982008;28;20034;-70
2022/05/28 14:36:03;;;;;;;7.50;1.73;;;;;;;;;;4981999;28;20041;-71
2022/05/28 14:38:29;;;;;;;8.50;1.80;;;;;;;;;;4981700;28;20022;-70
2022/05/28 14:40:55;;;;;;;6.47;1.85;;;;;;;;;;4978714;28;20796;-70
2022/05/28 14:43:31;;;;;;;8.90;1.83;;;;;;;;;;4978627;28;20226;-68
2022/05/28 14:46:02;;;;;;;11.13;2.85;;;;;;;;;;4979145;28;20271;-68
2022/05/28 14:48:28;;;;;;;9.80;2.03;;;;;;;;;;4978718;28;20054;-69
2022/05/28 14:51:01;;;;;;;8.75;2.05;;;;;;;;;;4976722;28;20057;-70
2022/05/28 14:53:26;;;;;;;;;;;;;;;;;;4979629;28;20057;-69